Historyczne dane pomiarowe

Dodano dane terminowe – wersja testowa.

Dane z okresu 1951-2018

Wersja bazy: 1.27 [2018-11-28, lista zmian], aktualizacja planowana na 2018-12-07

Dane meteo z obszaru Polski uzyskane na podstawie danych udostępnionych przez Instytut Meteorologii i Gospodarki Wodnej – Państwowy Instytut Badawczy.

 

Wybierz Datę:    

       

TemperaturaWilgotnośćWiatrCiśnienieOpadyŚniegCzas trwania zjawisk
 Stacja t tx tn tng RH VA  wxwx mslp ppp RRR   cm mm wxwxwxwxwxwxwx
1959-11-08 4.4 6.0 1.2 2.8 95.3- 8.0 0.7---- 0.5------------
1959-11-09 4.6 6.0 0.7 1.8 96.0- 8.0 1.3---- 1.5------------
1959-11-10 5.8 7.6 2.7 3.9 94.5- 8.0 1.0---- 7.4------------
1959-11-11 5.1 7.0 0.9 1.4 92.3- 8.0 1.7---- 0.0------------
1959-11-12 4.5 6.0 1.2 3.3 97.0- 8.0 1.0---- 2.2------------
1959-11-13 4.0 4.7 0.7 2.6 88.5- 8.0 2.7---- 0.0------------
1959-11-14 3.9 7.5 0.0 2.9 80.5- 8.0 4.7---- 0.0------------
1959-11-15 0.8 4.5 -2.3 0.5 71.5- 1.7 5.0---- 0.0------------
1959-11-16 -2.2 0.2 -5.7 -5.3 83.8- 4.7 4.3---- 0.0------------
1959-11-17 -3.0 -2.0 -5.6 -5.3 90.8- 8.0 2.0---- 0.2------------
1959-11-18 0.0 1.0 -3.6 -4.5 89.3- 8.0 3.0---- 1.1-- 1---------
1959-11-19 1.2 1.5 -2.1 -0.5 94.5- 8.0 2.0---- 0.0-- 5---------
1959-11-20 2.0 3.0 -0.9 -0.4 95.3- 8.0 0.0---- 0.0------------
1959-11-21 -1.8 3.5 -5.4 -1.0 89.0- 6.3 1.0---- 0.0------------
1959-11-22 -2.8 -0.7-10.1-10.9 91.0- 5.7 0.0---- 0.0------------
1959-11-23 -1.6 -0.5 -6.8 -5.0 93.8- 8.0 1.0---- 0.0------------
1959-11-24 1.8 2.9 -3.1 -1.5 93.3- 8.0 1.0---- 0.0------------
1959-11-25 0.1 4.5 -2.7 -1.4 86.5- 3.7 0.0---- 0.0------------
1959-11-26 -2.4 0.5-10.9-11.7 88.0- 8.0 1.0---- 0.0------------
1959-11-27 -0.9 1.3 -6.0 -3.8 92.5- 5.7 3.0---- 0.0------------
1959-11-28 0.5 1.5 -5.6 -5.5 94.0- 7.0 1.7---- 0.2------------
1959-11-29 2.2 4.8 -0.2 1.6 94.5- 8.0 0.3---- 0.3------------
1959-11-30 2.6 5.3 -0.8 1.0 93.5- 7.0 0.7---- 0.1------------
1959-12-01 1.4 2.6 -1.7 -1.5 92.3- 8.0 2.7---- 0.3------------
1959-12-02 1.8 2.3 -0.9 0.4 94.5- 8.0 1.7---- 16.3------------
1959-12-03 2.2 3.5 -0.4 0.8 95.8- 8.0 0.0---- 0.0------------
1959-12-04 -2.3 2.1 -5.9 -0.5 87.8- 8.0 4.0---- 0.0------------
1959-12-05 -7.6 -3.5-10.6 -8.5 81.3- 7.0 5.0---- 0.0------------
1959-12-06-16.0 -8.8-19.2-18.1 67.0- 1.3 4.7---- 0.0------------
1959-12-07-16.8-14.9-25.2-21.9 58.5- 8.0 4.7---- 0.0------------
153.8 ms

 

Źródłem pochodzenia danych jest Instytut Meteorologii i Gospodarki Wodnej – Państwowy Instytut Badawczy. Dane Instytutu Meteorologii i Gospodarki Wodnej – Państwowego Instytutu Badawczego zostały przetworzone.

Dane źródłowe można odnaleźć na stronie https://dane.imgw.pl